createdAt,value
2023-07-18T00:01:31.036Z,100440.13
2023-07-18T00:03:58.702Z,100428.63
2023-07-18T00:06:26.260Z,100435.06
2023-07-18T00:08:53.751Z,100427.56
2023-07-18T00:11:23.634Z,100420.13
2023-07-18T00:13:51.390Z,100436.69
2023-07-18T00:16:19.150Z,100432.16
2023-07-18T00:18:46.787Z,100411.22
2023-07-18T00:21:14.356Z,100404.97
2023-07-18T00:23:41.647Z,100416.47
2023-07-18T00:26:09.935Z,100418.81
2023-07-18T00:28:39.080Z,100411.34
2023-07-18T00:31:06.911Z,100415.09
2023-07-18T00:33:34.248Z,100423.22
2023-07-18T00:36:01.683Z,100419.19
2023-07-18T00:38:29.291Z,100413.00
2023-07-18T00:40:56.626Z,100410.09
2023-07-18T00:43:24.019Z,100403.72
2023-07-18T00:45:52.420Z,100399.09
2023-07-18T00:48:19.739Z,100388.91
2023-07-18T00:50:48.914Z,100402.38
2023-07-18T00:53:16.473Z,100389.22
2023-07-18T00:55:44.369Z,100408.06
2023-07-18T00:58:11.984Z,100390.56
2023-07-18T01:00:39.545Z,100391.75
2023-07-18T01:03:10.955Z,100374.16
2023-07-18T01:05:39.061Z,100374.91
2023-07-18T01:08:06.517Z,100376.16
2023-07-18T01:10:33.854Z,100376.91
2023-07-18T01:13:02.176Z,100378.19
2023-07-18T01:15:34.852Z,100372.13
2023-07-18T01:18:08.398Z,100373.38
2023-07-18T01:20:37.517Z,100356.28
2023-07-18T01:23:05.517Z,100368.16
2023-07-18T01:25:38.143Z,100366.56
2023-07-18T01:28:07.815Z,100372.31
2023-07-18T01:30:35.541Z,100368.16
2023-07-18T01:33:04.596Z,100378.31
2023-07-18T01:35:32.000Z,100367.56
2023-07-18T01:38:00.089Z,100361.84
2023-07-18T01:40:28.509Z,100372.44
2023-07-18T01:42:58.775Z,100377.09
2023-07-18T01:45:29.326Z,100371.13
2023-07-18T01:47:58.149Z,100375.16
2023-07-18T01:50:25.704Z,100370.66
2023-07-18T01:52:53.294Z,100369.72
2023-07-18T01:55:21.351Z,100392.19
2023-07-18T01:57:50.622Z,100382.28
2023-07-18T02:00:20.826Z,100391.94
2023-07-18T02:02:51.621Z,100392.75
2023-07-18T02:05:22.325Z,100362.66
2023-07-18T02:07:50.919Z,100372.38
2023-07-18T02:10:23.003Z,100375.72
2023-07-18T02:12:52.824Z,100381.34
2023-07-18T02:15:22.633Z,100387.84
2023-07-18T02:17:50.793Z,100386.88
2023-07-18T02:20:19.876Z,100373.81
2023-07-18T02:22:47.972Z,100386.97
2023-07-18T02:25:19.545Z,100401.22
2023-07-18T02:27:47.705Z,100392.31
2023-07-18T02:30:16.214Z,100391.56
2023-07-18T02:32:45.065Z,100393.66
2023-07-18T02:35:20.510Z,100388.34
2023-07-18T02:37:48.868Z,100383.09
2023-07-18T02:40:20.293Z,100381.78
2023-07-18T02:42:47.909Z,100380.19
2023-07-18T02:45:16.137Z,100394.34
2023-07-18T02:47:44.433Z,100388.66
2023-07-18T02:50:11.928Z,100395.28
2023-07-18T02:52:40.433Z,100395.22
2023-07-18T02:55:09.556Z,100390.44
2023-07-18T02:57:37.376Z,100392.94
2023-07-18T03:00:12.483Z,100390.22
2023-07-18T03:02:40.076Z,100397.97
2023-07-18T03:05:08.649Z,100403.91
2023-07-18T03:07:35.975Z,100397.47
2023-07-18T03:10:08.122Z,100406.00
2023-07-18T03:12:35.509Z,100397.88
2023-07-18T03:15:03.630Z,100375.75
2023-07-18T03:17:34.132Z,100377.94
2023-07-18T03:20:01.644Z,100393.56
2023-07-18T03:22:30.825Z,100377.31
2023-07-18T03:25:06.738Z,100362.66
2023-07-18T03:27:34.191Z,100393.25
2023-07-18T03:30:01.330Z,100370.50
2023-07-18T03:32:31.292Z,100373.84
2023-07-18T03:34:58.986Z,100369.34
2023-07-18T03:37:31.491Z,100375.19
2023-07-18T03:39:58.859Z,100364.16
2023-07-18T03:42:26.224Z,100373.56
2023-07-18T03:44:54.188Z,100360.16
2023-07-18T03:47:22.845Z,100364.31
2023-07-18T03:49:51.453Z,100381.16
2023-07-18T03:52:18.761Z,100384.09
2023-07-18T03:54:48.416Z,100381.72
2023-07-18T03:57:16.107Z,100398.97
2023-07-18T03:59:43.455Z,100375.31
2023-07-18T04:02:11.159Z,100394.19
2023-07-18T04:04:39.720Z,100393.38
2023-07-18T04:07:07.591Z,100398.22
2023-07-18T04:09:36.015Z,100392.16
2023-07-18T04:12:03.623Z,100403.50
2023-07-18T04:14:31.318Z,100398.25
2023-07-18T04:16:59.903Z,100381.09
2023-07-18T04:19:27.589Z,100404.41
2023-07-18T04:21:54.966Z,100417.53
2023-07-18T04:24:22.739Z,100411.88
2023-07-18T04:26:50.150Z,100388.59
2023-07-18T04:29:18.134Z,100407.50
2023-07-18T04:31:45.959Z,100381.03
2023-07-18T04:34:13.353Z,100383.13
2023-07-18T04:36:40.667Z,100398.28
2023-07-18T04:39:07.996Z,100385.69
2023-07-18T04:41:49.472Z,100405.06
2023-07-18T04:44:22.220Z,100392.03
2023-07-18T04:46:49.826Z,100417.84
2023-07-18T04:49:17.713Z,100397.47
2023-07-18T04:51:45.310Z,100386.06
2023-07-18T04:54:13.636Z,100412.25
2023-07-18T04:56:41.329Z,100409.88
2023-07-18T04:59:08.796Z,100392.38
2023-07-18T05:01:38.165Z,100388.28
2023-07-18T05:04:05.774Z,100397.78
2023-07-18T05:06:38.373Z,100369.13
2023-07-18T05:09:06.979Z,100392.94
2023-07-18T05:11:35.563Z,100401.13
2023-07-18T05:14:03.556Z,100390.13
2023-07-18T05:16:31.664Z,100392.59
2023-07-18T05:19:00.282Z,100396.31
2023-07-18T05:21:27.564Z,100376.72
2023-07-18T05:23:54.886Z,100379.16
2023-07-18T05:26:22.826Z,100383.72
2023-07-18T05:28:50.064Z,100389.84
2023-07-18T05:31:18.618Z,100383.34
2023-07-18T05:33:46.298Z,100373.13
2023-07-18T05:36:14.052Z,100376.81
2023-07-18T05:38:41.592Z,100370.25
2023-07-18T05:41:08.820Z,100357.59
2023-07-18T05:43:36.148Z,100361.69
2023-07-18T05:46:03.458Z,100361.69
2023-07-18T05:48:31.946Z,100364.16
2023-07-18T05:51:01.360Z,100355.56
2023-07-18T05:53:28.789Z,100347.00
2023-07-18T05:55:56.543Z,100296.78
2023-07-18T05:58:24.098Z,100344.50
2023-07-18T06:00:51.766Z,100347.00
2023-07-18T06:03:22.284Z,100365.78
2023-07-18T06:05:58.899Z,100384.94
2023-07-18T06:08:26.140Z,100357.19
2023-07-18T06:11:00.666Z,100361.28
2023-07-18T06:13:28.208Z,100361.28
2023-07-18T06:15:55.698Z,100373.13
2023-07-18T06:18:23.269Z,100377.59
2023-07-18T06:20:51.399Z,100351.47
2023-07-18T06:23:19.051Z,100359.59
2023-07-18T06:25:46.588Z,100367.38
2023-07-18T06:28:13.909Z,100353.47
2023-07-18T06:30:41.309Z,100361.25
2023-07-18T06:33:08.850Z,100366.13
2023-07-18T06:35:36.485Z,100361.22
2023-07-18T06:38:03.943Z,100362.41
2023-07-18T06:40:31.623Z,100376.31
2023-07-18T06:43:00.617Z,100372.63
2023-07-18T06:45:28.046Z,100360.75
2023-07-18T06:47:56.050Z,100372.56
2023-07-18T06:50:23.272Z,100361.91
2023-07-18T06:52:52.976Z,100357.00
2023-07-18T06:55:20.337Z,100365.19
2023-07-18T06:57:47.605Z,100364.72
2023-07-18T07:00:15.628Z,100345.53
2023-07-18T07:02:43.191Z,100354.91
2023-07-18T07:05:10.576Z,100350.47
2023-07-18T07:07:38.625Z,100356.53
2023-07-18T07:10:10.351Z,100361.81
2023-07-18T07:12:38.306Z,100354.03
2023-07-18T07:15:06.273Z,100358.88
2023-07-18T07:17:37.689Z,100365.00
2023-07-18T07:20:13.909Z,100352.72
2023-07-18T07:22:45.445Z,100353.50
2023-07-18T07:25:14.663Z,100356.69
2023-07-18T07:27:45.228Z,100340.72
2023-07-18T07:30:19.679Z,100346.44
2023-07-18T07:34:23.642Z,100335.38
2023-07-18T07:36:51.972Z,100334.13
2023-07-18T07:39:19.783Z,100348.78
2023-07-18T07:41:47.108Z,100325.16
2023-07-18T07:44:14.352Z,100333.66
2023-07-18T07:46:42.660Z,100336.19
2023-07-18T07:49:11.076Z,100334.06
2023-07-18T07:51:39.063Z,100336.50
2023-07-18T07:54:06.400Z,100342.72
2023-07-18T07:56:33.747Z,100324.38
2023-07-18T07:59:11.123Z,100321.50
2023-07-18T08:01:39.802Z,100334.19
2023-07-18T08:04:09.920Z,100316.28
2023-07-18T08:06:37.262Z,100319.44
2023-07-18T08:09:04.612Z,100314.94
2023-07-18T08:11:32.081Z,100319.81
2023-07-18T08:13:59.596Z,100333.22
2023-07-18T08:16:28.527Z,100331.06
2023-07-18T08:18:56.058Z,100316.28
2023-07-18T08:21:23.351Z,100322.31
2023-07-18T08:23:51.174Z,100326.81
2023-07-18T08:26:18.506Z,100322.31
2023-07-18T08:28:45.985Z,100321.03
2023-07-18T08:31:13.498Z,100312.78
2023-07-18T08:33:40.921Z,100324.16
2023-07-18T08:36:09.243Z,100317.56
2023-07-18T08:38:36.760Z,100308.53
2023-07-18T08:41:05.034Z,100299.75
2023-07-18T08:49:08.526Z,100308.91
2023-07-18T08:51:36.288Z,100301.25
2023-07-18T08:54:05.046Z,100310.25
2023-07-18T08:59:20.034Z,100305.03
2023-07-18T09:01:51.664Z,100298.53
2023-07-18T09:04:20.303Z,100292.13
2023-07-18T09:06:50.583Z,100287.31
2023-07-18T09:09:19.647Z,100272.69
2023-07-18T09:12:04.651Z,100292.88
2023-07-18T09:14:34.292Z,100275.34
2023-07-18T09:17:09.668Z,100267.38
2023-07-18T09:19:50.154Z,100272.66
2023-07-18T09:22:20.616Z,100266.94
2023-07-18T09:24:49.421Z,100273.09
2023-07-18T09:27:19.235Z,100278.97
2023-07-18T09:29:49.471Z,100277.84
2023-07-18T09:32:22.080Z,100275.50
2023-07-18T09:35:00.828Z,100269.78
2023-07-18T09:37:47.197Z,100267.28
2023-07-18T09:40:19.744Z,100247.34
2023-07-18T09:42:49.328Z,100260.66
2023-07-18T09:45:18.368Z,100267.72
2023-07-18T09:47:45.957Z,100241.22
2023-07-18T09:50:15.049Z,100253.25
2023-07-18T09:52:53.525Z,100239.19
2023-07-18T09:55:26.125Z,100246.81
2023-07-18T09:57:56.968Z,100261.81
2023-07-18T10:00:26.626Z,100244.59
2023-07-18T10:02:56.393Z,100242.56
2023-07-18T10:05:24.795Z,100241.06
2023-07-18T10:07:52.608Z,100231.06
2023-07-18T10:10:20.742Z,100233.69
2023-07-18T10:13:02.501Z,100230.81
2023-07-18T10:15:30.436Z,100229.00
2023-07-18T10:18:18.496Z,100215.00
2023-07-18T10:21:02.265Z,100216.53
2023-07-18T10:23:43.585Z,100207.38
2023-07-18T10:26:11.112Z,100206.59
2023-07-18T10:28:46.601Z,100224.22
2023-07-18T10:31:31.573Z,100209.16
2023-07-18T10:34:10.806Z,100205.69
2023-07-18T10:37:02.173Z,100206.38
2023-07-18T10:39:51.098Z,100187.38
2023-07-18T10:42:27.828Z,100199.75
2023-07-18T10:44:58.017Z,100205.72
2023-07-18T10:47:26.741Z,100190.47
2023-07-18T10:49:54.686Z,100199.41
2023-07-18T10:52:22.760Z,100194.59
2023-07-18T10:54:57.604Z,100189.88
2023-07-18T10:57:34.333Z,100185.13
2023-07-18T11:00:04.758Z,100182.56
2023-07-18T11:02:40.329Z,100181.47
2023-07-18T11:05:15.375Z,100168.94
2023-07-18T11:07:49.229Z,100191.19
2023-07-18T11:10:17.534Z,100187.94
2023-07-18T11:12:44.989Z,100181.16
2023-07-18T11:15:13.791Z,100179.53
2023-07-18T11:17:43.774Z,100164.09
2023-07-18T11:20:13.473Z,100170.88
2023-07-18T11:22:42.182Z,100165.28
2023-07-18T11:25:11.984Z,100168.66
2023-07-18T11:27:39.545Z,100161.47
2023-07-18T11:30:10.773Z,100165.00
2023-07-18T11:32:46.905Z,100162.78
2023-07-18T11:35:20.538Z,100151.78
2023-07-18T11:37:53.325Z,100163.53
2023-07-18T11:40:27.394Z,100159.22
2023-07-18T11:42:57.728Z,100156.13
2023-07-18T11:45:29.625Z,100164.50
2023-07-18T11:47:59.626Z,100148.78
2023-07-18T11:50:30.564Z,100155.53
2023-07-18T11:52:59.991Z,100145.06
2023-07-18T11:55:27.904Z,100138.56
2023-07-18T11:57:57.205Z,100146.09
2023-07-18T12:00:24.579Z,100130.38
2023-07-18T12:02:53.717Z,100134.75
2023-07-18T12:05:21.606Z,100132.34
2023-07-18T12:07:50.423Z,100125.41
2023-07-18T12:10:19.623Z,100129.44
2023-07-18T12:12:47.255Z,100116.19
2023-07-18T12:15:15.557Z,100124.75
2023-07-18T12:17:43.057Z,100120.56
2023-07-18T12:20:11.753Z,100133.56
2023-07-18T12:22:39.389Z,100127.59
2023-07-18T12:25:07.128Z,100110.66
2023-07-18T12:27:34.717Z,100103.59
2023-07-18T12:30:02.287Z,100107.66
2023-07-18T12:32:33.529Z,100100.78
2023-07-18T12:35:01.601Z,100118.72
2023-07-18T12:37:33.196Z,100100.84
2023-07-18T12:40:00.739Z,100110.72
2023-07-18T12:42:28.490Z,100101.16
2023-07-18T12:44:55.913Z,100109.78
2023-07-18T12:47:23.809Z,100111.78
2023-07-18T12:52:21.961Z,100098.78
2023-07-18T12:54:49.416Z,100108.22
2023-07-18T12:57:17.173Z,100103.47
2023-07-18T12:59:45.033Z,100100.78
2023-07-18T13:02:14.814Z,100090.25
2023-07-18T13:04:42.645Z,100100.56
2023-07-18T13:07:11.325Z,100093.97
2023-07-18T13:09:39.857Z,100084.63
2023-07-18T13:12:10.900Z,100104.03
2023-07-18T13:14:38.502Z,100087.00
2023-07-18T13:17:06.487Z,100085.75
2023-07-18T13:19:33.785Z,100088.19
2023-07-18T13:22:01.321Z,100089.00
2023-07-18T13:24:28.832Z,100081.63
2023-07-18T13:26:56.942Z,100074.06
2023-07-18T13:29:24.229Z,100052.25
2023-07-18T13:31:51.753Z,100070.00
2023-07-18T13:34:21.008Z,100067.56
2023-07-18T13:36:48.464Z,100066.66
2023-07-18T13:39:17.040Z,100075.59
2023-07-18T13:41:44.636Z,100068.28
2023-07-18T13:44:12.237Z,100060.63
2023-07-18T13:46:39.567Z,100063.44
2023-07-18T13:49:07.101Z,100066.31
2023-07-18T13:51:34.714Z,100038.47
2023-07-18T13:54:02.324Z,100046.13
2023-07-18T13:56:29.858Z,100061.44
2023-07-18T13:58:57.598Z,100026.50
2023-07-18T14:01:25.024Z,100045.16
2023-07-18T14:03:53.406Z,100048.91
2023-07-18T14:06:22.488Z,100055.63
2023-07-18T14:08:52.756Z,100046.53
2023-07-18T14:11:28.326Z,100040.16
2023-07-18T14:14:00.261Z,100050.59
2023-07-18T14:16:28.082Z,100039.22
2023-07-18T14:18:58.010Z,100037.53
2023-07-18T14:21:26.295Z,100038.50
2023-07-18T14:24:01.282Z,100006.00
2023-07-18T14:26:30.317Z,100028.69
2023-07-18T14:28:58.259Z,100016.81
2023-07-18T14:31:25.977Z,100030.66
2023-07-18T14:34:05.370Z,100019.03
2023-07-18T14:36:34.016Z,100022.81
2023-07-18T14:39:01.486Z,100012.66
2023-07-18T14:41:29.861Z,100004.34
2023-07-18T14:43:57.582Z,100014.63
2023-07-18T14:46:25.219Z,100022.13
2023-07-18T14:48:53.572Z,100016.81
2023-07-18T14:51:21.698Z,99992.47
2023-07-18T14:53:49.337Z,100010.47
2023-07-18T14:56:16.738Z,100006.53
2023-07-18T14:58:44.228Z,99997.06
2023-07-18T15:01:11.542Z,99994.19
2023-07-18T15:03:38.994Z,100008.94
2023-07-18T15:06:06.569Z,100011.28
2023-07-18T15:08:35.275Z,100025.53
2023-07-18T15:11:03.706Z,100016.19
2023-07-18T15:13:31.262Z,100028.06
2023-07-18T15:15:58.594Z,100012.75
2023-07-18T15:18:26.125Z,100022.84
2023-07-18T15:20:53.438Z,100007.84
2023-07-18T15:23:21.710Z,100022.16
2023-07-18T15:25:49.235Z,100015.50
2023-07-18T15:28:18.484Z,100017.94
2023-07-18T15:30:45.852Z,100017.50
2023-07-18T15:33:26.685Z,100017.09
2023-07-18T15:35:55.634Z,100013.59
2023-07-18T15:38:23.142Z,100024.66
2023-07-18T15:40:50.527Z,100012.84
2023-07-18T15:43:17.704Z,100012.25
2023-07-18T15:45:52.354Z,100011.00
2023-07-18T15:48:19.859Z,100006.66
2023-07-18T15:50:48.693Z,100010.94
2023-07-18T15:53:16.341Z,100017.28
2023-07-18T15:55:44.119Z,99996.53
2023-07-18T15:58:11.539Z,99998.53
2023-07-18T16:00:39.668Z,99982.28
2023-07-18T16:03:10.141Z,100006.75
2023-07-18T16:05:37.839Z,100003.94
2023-07-18T16:08:05.441Z,99998.06
2023-07-18T16:10:32.840Z,99990.63
2023-07-18T16:13:00.252Z,100005.06
2023-07-18T16:15:27.616Z,99998.50
2023-07-18T16:17:54.873Z,100005.22
2023-07-18T16:20:22.151Z,100002.88
2023-07-18T16:22:50.402Z,100002.22
2023-07-18T16:25:17.917Z,99986.34
2023-07-18T16:27:48.008Z,99996.38
2023-07-18T16:30:15.654Z,100000.50
2023-07-18T16:32:43.299Z,99985.41
2023-07-18T16:35:10.843Z,99993.88
2023-07-18T16:37:38.275Z,100003.47
2023-07-18T16:40:06.776Z,100004.78
2023-07-18T16:42:34.339Z,99986.94
2023-07-18T16:45:01.838Z,99987.00
2023-07-18T16:47:32.760Z,99989.25
2023-07-18T16:50:01.645Z,99994.44
2023-07-18T16:52:32.325Z,99995.91
2023-07-18T16:54:59.767Z,99990.69
2023-07-18T16:57:27.195Z,99982.19
2023-07-18T16:59:54.611Z,100001.88
2023-07-18T17:02:21.955Z,99988.66
2023-07-18T17:04:49.603Z,99985.16
2023-07-18T17:07:17.560Z,100006.41
2023-07-18T17:09:45.154Z,100001.88
2023-07-18T17:12:13.761Z,99990.41
2023-07-18T17:14:41.064Z,99997.25
2023-07-18T17:17:08.832Z,99983.84
2023-07-18T17:19:48.225Z,99994.72
2023-07-18T17:22:23.542Z,100001.97
2023-07-18T17:24:52.078Z,100017.63
2023-07-18T17:27:19.617Z,100015.47
2023-07-18T17:29:46.937Z,99998.00
2023-07-18T17:32:14.586Z,100018.56
2023-07-18T17:34:42.461Z,100013.38
2023-07-18T17:37:09.761Z,100014.31
2023-07-18T17:39:37.386Z,100008.38
2023-07-18T17:42:09.743Z,100018.97
2023-07-18T17:44:37.633Z,100018.59
2023-07-18T17:47:05.550Z,100025.13
2023-07-18T17:49:32.972Z,100002.44
2023-07-18T17:52:00.218Z,100018.81
2023-07-18T17:54:29.045Z,100039.78
2023-07-18T17:56:56.431Z,100026.69
2023-07-18T17:59:23.995Z,100030.84
2023-07-18T18:01:51.394Z,100024.88
2023-07-18T18:04:19.574Z,100025.63
2023-07-18T18:06:48.285Z,100038.63
2023-07-18T18:09:15.508Z,100012.19
2023-07-18T18:11:42.843Z,100030.13
2023-07-18T18:14:10.162Z,100028.53
2023-07-18T18:16:37.697Z,100027.78
2023-07-18T18:19:04.902Z,100003.38
2023-07-18T18:21:33.372Z,100031.19
2023-07-18T18:24:00.680Z,100018.13
2023-07-18T18:26:28.169Z,100016.50
2023-07-18T18:28:56.105Z,100018.09
2023-07-18T18:31:23.969Z,100016.91
2023-07-18T18:33:51.953Z,100007.16
2023-07-18T18:36:24.212Z,100008.50
2023-07-18T18:38:52.697Z,100013.84
2023-07-18T18:41:21.533Z,100032.25
2023-07-18T18:43:50.837Z,100029.00
2023-07-18T18:46:18.644Z,99993.13
2023-07-18T18:48:46.074Z,99991.38
2023-07-18T18:51:13.531Z,100019.81
2023-07-18T18:53:40.926Z,100014.09
2023-07-18T18:56:08.620Z,100010.88
2023-07-18T18:58:36.801Z,100021.88
2023-07-18T19:01:07.437Z,100006.09
2023-07-18T19:03:36.000Z,100022.41
2023-07-18T19:06:03.691Z,100022.88
2023-07-18T19:08:31.038Z,100028.19
2023-07-18T19:11:07.390Z,99997.13
2023-07-18T19:13:37.215Z,100016.66
2023-07-18T19:16:05.132Z,100023.91
2023-07-18T19:18:32.453Z,100003.91
2023-07-18T19:21:00.004Z,100017.28
2023-07-18T19:23:27.642Z,100018.56
2023-07-18T19:25:56.410Z,100005.00
2023-07-18T19:28:24.681Z,100000.63
2023-07-18T19:30:52.167Z,100022.91
2023-07-18T19:33:19.404Z,100013.19
2023-07-18T19:35:46.828Z,100026.38
2023-07-18T19:38:14.190Z,100027.38
2023-07-18T19:40:42.482Z,100023.72
2023-07-18T19:43:10.321Z,100031.00
2023-07-18T19:45:37.688Z,100027.91
2023-07-18T19:48:05.738Z,100023.81
2023-07-18T19:50:33.233Z,100024.53
2023-07-18T19:53:00.862Z,100028.63
2023-07-18T19:55:28.635Z,100015.16
2023-07-18T19:57:56.950Z,100026.25
2023-07-18T20:00:24.559Z,100012.03
2023-07-18T20:02:51.920Z,100012.34
2023-07-18T20:05:19.257Z,100004.69
2023-07-18T20:07:46.770Z,100025.44
2023-07-18T20:10:14.353Z,100018.88
2023-07-18T20:12:41.709Z,99998.47
2023-07-18T20:15:11.689Z,100014.69
2023-07-18T20:17:39.066Z,99990.56
2023-07-18T20:20:07.508Z,100006.47
2023-07-18T20:22:34.867Z,99999.56
2023-07-18T20:25:02.160Z,99990.78
2023-07-18T20:27:36.995Z,100009.41
2023-07-18T20:30:05.815Z,99997.19
2023-07-18T20:32:36.532Z,100001.75
2023-07-18T20:35:04.125Z,99991.94
2023-07-18T20:37:34.155Z,100002.09
2023-07-18T20:40:05.626Z,100009.09
2023-07-18T20:42:36.644Z,100013.22
2023-07-18T20:45:06.202Z,99997.44
2023-07-18T20:47:36.387Z,100014.56
2023-07-18T20:50:05.033Z,100004.38
2023-07-18T20:52:32.628Z,100007.28
2023-07-18T20:55:00.062Z,100004.88
2023-07-18T20:57:27.411Z,99994.66
2023-07-18T20:59:54.810Z,100003.25
2023-07-18T21:02:22.260Z,100000.06
2023-07-18T21:04:49.966Z,99987.44
2023-07-18T21:07:17.521Z,100005.81
2023-07-18T21:09:45.528Z,100003.34
2023-07-18T21:12:12.767Z,99991.50
2023-07-18T21:14:40.222Z,100000.78
2023-07-18T21:17:07.461Z,99982.91
2023-07-18T21:19:34.688Z,99983.84
2023-07-18T21:22:02.321Z,100000.09
2023-07-18T21:24:29.661Z,99999.97
2023-07-18T21:26:57.597Z,100007.41
2023-07-18T21:29:25.467Z,100004.41
2023-07-18T21:31:55.723Z,99991.50
2023-07-18T21:34:24.532Z,99989.03
2023-07-18T21:36:52.103Z,99985.31
2023-07-18T21:39:19.427Z,99990.50
2023-07-18T21:41:46.795Z,99989.59
2023-07-18T21:44:14.312Z,99989.66
2023-07-18T21:46:41.722Z,99991.31
2023-07-18T21:49:10.184Z,99985.66
2023-07-18T21:51:41.342Z,99965.78
2023-07-18T21:54:10.410Z,99964.13
2023-07-18T21:56:37.835Z,99959.19
2023-07-18T21:59:05.250Z,99940.84
2023-07-18T22:01:32.722Z,99958.25
2023-07-18T22:04:00.401Z,99957.47
2023-07-18T22:06:27.832Z,99949.38
2023-07-18T22:08:55.357Z,99932.66
2023-07-18T22:11:23.039Z,99959.22
2023-07-18T22:13:53.606Z,99959.22
2023-07-18T22:16:21.016Z,99953.09
2023-07-18T22:18:48.544Z,99937.59
2023-07-18T22:21:16.307Z,99949.38
2023-07-18T22:23:43.678Z,99952.25
2023-07-18T22:26:14.551Z,99935.56
2023-07-18T22:28:43.719Z,99942.47
2023-07-18T22:31:13.290Z,99929.75
2023-07-18T22:33:41.303Z,99942.88
2023-07-18T22:36:09.377Z,99932.34
2023-07-18T22:38:37.058Z,99935.66
2023-07-18T22:41:04.641Z,99936.59
2023-07-18T22:43:32.160Z,99927.31
2023-07-18T22:45:59.449Z,99922.81
2023-07-18T22:48:27.091Z,99928.50
2023-07-18T22:50:54.335Z,99913.53
2023-07-18T22:53:21.983Z,99944.06
2023-07-18T22:55:49.839Z,99944.13
2023-07-18T22:58:17.925Z,99936.38
2023-07-18T23:00:45.227Z,99927.81
2023-07-18T23:03:13.822Z,99918.09
2023-07-18T23:05:41.719Z,99903.31
2023-07-18T23:08:09.139Z,99920.34
2023-07-18T23:10:36.429Z,99915.44
2023-07-18T23:13:03.869Z,99925.75
2023-07-18T23:15:31.431Z,99904.16
2023-07-18T23:17:59.098Z,99919.22
2023-07-18T23:20:26.552Z,99906.59
2023-07-18T23:22:54.600Z,99905.78
2023-07-18T23:25:22.083Z,99903.72
2023-07-18T23:27:49.580Z,99912.31
2023-07-18T23:30:17.100Z,99915.19
2023-07-18T23:32:44.738Z,99908.69
2023-07-18T23:35:12.344Z,99905.47
2023-07-18T23:37:39.988Z,99907.50
2023-07-18T23:40:08.202Z,99902.66
2023-07-18T23:42:35.542Z,99912.81
2023-07-18T23:45:02.866Z,99911.16
2023-07-18T23:47:31.759Z,99915.63
2023-07-18T23:49:59.745Z,99900.97
2023-07-18T23:52:27.439Z,99880.25
2023-07-18T23:54:54.814Z,99896.97
2023-07-18T23:57:23.143Z,99890.03
2023-07-18T23:59:50.792Z,99896.50
